sensor_id;sensor_type;location;lat;lon;timestamp;temperature;humidity
7496;DHT22;3789;47.064;15.482;2023-06-24T00:01:08;15.30;99.90
7496;DHT22;3789;47.064;15.482;2023-06-24T00:03:36;15.40;99.90
7496;DHT22;3789;47.064;15.482;2023-06-24T00:06:23;15.40;99.90
7496;DHT22;3789;47.064;15.482;2023-06-24T00:08:53;15.30;99.90
7496;DHT22;3789;47.064;15.482;2023-06-24T00:11:28;15.20;99.90
7496;DHT22;3789;47.064;15.482;2023-06-24T00:13:57;15.20;99.90
7496;DHT22;3789;47.064;15.482;2023-06-24T00:16:24;15.10;99.90
7496;DHT22;3789;47.064;15.482;2023-06-24T00:18:56;15.10;99.90
7496;DHT22;3789;47.064;15.482;2023-06-24T00:21:27;15.10;99.90
7496;DHT22;3789;47.064;15.482;2023-06-24T00:23:59;15.00;99.90
7496;DHT22;3789;47.064;15.482;2023-06-24T00:26:31;14.80;99.90
7496;DHT22;3789;47.064;15.482;2023-06-24T00:28:59;14.80;99.90
7496;DHT22;3789;47.064;15.482;2023-06-24T00:31:55;15.00;99.90
7496;DHT22;3789;47.064;15.482;2023-06-24T00:34:22;15.00;99.90
7496;DHT22;3789;47.064;15.482;2023-06-24T00:36:50;15.00;99.90
7496;DHT22;3789;47.064;15.482;2023-06-24T00:39:17;15.20;99.90
7496;DHT22;3789;47.064;15.482;2023-06-24T00:41:45;15.30;99.90
7496;DHT22;3789;47.064;15.482;2023-06-24T00:44:12;15.40;99.90
7496;DHT22;3789;47.064;15.482;2023-06-24T00:46:40;15.40;99.90
7496;DHT22;3789;47.064;15.482;2023-06-24T00:49:07;15.50;99.90
7496;DHT22;3789;47.064;15.482;2023-06-24T00:51:35;15.40;99.90
7496;DHT22;3789;47.064;15.482;2023-06-24T00:54:03;15.30;99.90
7496;DHT22;3789;47.064;15.482;2023-06-24T00:56:34;15.40;99.90
7496;DHT22;3789;47.064;15.482;2023-06-24T00:59:02;15.30;99.90
7496;DHT22;3789;47.064;15.482;2023-06-24T01:01:33;15.20;99.90
7496;DHT22;3789;47.064;15.482;2023-06-24T01:04:03;15.20;99.90
7496;DHT22;3789;47.064;15.482;2023-06-24T01:06:31;15.20;99.90
7496;DHT22;3789;47.064;15.482;2023-06-24T01:09:00;15.20;99.90
7496;DHT22;3789;47.064;15.482;2023-06-24T01:11:30;15.20;99.90
7496;DHT22;3789;47.064;15.482;2023-06-24T01:13:58;15.20;99.90
7496;DHT22;3789;47.064;15.482;2023-06-24T01:34:33;15.70;99.90
7496;DHT22;3789;47.064;15.482;2023-06-24T01:37:17;15.50;99.90
7496;DHT22;3789;47.064;15.482;2023-06-24T01:39:57;15.40;99.90
7496;DHT22;3789;47.064;15.482;2023-06-24T01:42:46;15.30;99.90
7496;DHT22;3789;47.064;15.482;2023-06-24T01:45:21;15.30;99.90
7496;DHT22;3789;47.064;15.482;2023-06-24T01:48:03;15.40;99.90
7496;DHT22;3789;47.064;15.482;2023-06-24T01:50:36;15.50;99.90
7496;DHT22;3789;47.064;15.482;2023-06-24T01:53:06;15.60;99.90
7496;DHT22;3789;47.064;15.482;2023-06-24T01:55:34;15.60;99.90
7496;DHT22;3789;47.064;15.482;2023-06-24T01:58:06;15.60;99.90
7496;DHT22;3789;47.064;15.482;2023-06-24T02:00:35;15.40;99.90
7496;DHT22;3789;47.064;15.482;2023-06-24T02:03:05;15.20;99.90
7496;DHT22;3789;47.064;15.482;2023-06-24T02:05:35;15.00;99.90
7496;DHT22;3789;47.064;15.482;2023-06-24T02:08:09;14.70;99.90
7496;DHT22;3789;47.064;15.482;2023-06-24T02:10:38;14.90;99.90
7496;DHT22;3789;47.064;15.482;2023-06-24T02:13:08;14.70;99.90
7496;DHT22;3789;47.064;15.482;2023-06-24T02:15:38;14.50;99.90
7496;DHT22;3789;47.064;15.482;2023-06-24T02:18:08;14.50;99.90
7496;DHT22;3789;47.064;15.482;2023-06-24T02:20:37;14.60;99.90
7496;DHT22;3789;47.064;15.482;2023-06-24T02:23:07;14.60;99.90
7496;DHT22;3789;47.064;15.482;2023-06-24T02:25:35;14.40;99.90
7496;DHT22;3789;47.064;15.482;2023-06-24T02:28:09;14.40;99.90
7496;DHT22;3789;47.064;15.482;2023-06-24T02:30:38;14.40;99.90
7496;DHT22;3789;47.064;15.482;2023-06-24T02:33:06;14.40;99.90
7496;DHT22;3789;47.064;15.482;2023-06-24T02:35:33;14.40;99.90
7496;DHT22;3789;47.064;15.482;2023-06-24T02:38:01;14.30;99.90
7496;DHT22;3789;47.064;15.482;2023-06-24T02:40:30;14.40;99.90
7496;DHT22;3789;47.064;15.482;2023-06-24T02:42:59;14.40;99.90
7496;DHT22;3789;47.064;15.482;2023-06-24T02:45:26;14.50;99.90
7496;DHT22;3789;47.064;15.482;2023-06-24T02:47:55;14.60;99.90
7496;DHT22;3789;47.064;15.482;2023-06-24T02:50:23;14.50;99.90
7496;DHT22;3789;47.064;15.482;2023-06-24T02:52:52;14.50;99.90
7496;DHT22;3789;47.064;15.482;2023-06-24T02:55:21;14.60;99.90
7496;DHT22;3789;47.064;15.482;2023-06-24T02:57:48;14.80;99.90
7496;DHT22;3789;47.064;15.482;2023-06-24T03:00:17;14.60;99.90
7496;DHT22;3789;47.064;15.482;2023-06-24T03:02:45;14.50;99.90
7496;DHT22;3789;47.064;15.482;2023-06-24T03:05:14;14.50;99.90
7496;DHT22;3789;47.064;15.482;2023-06-24T03:07:43;14.60;99.90
7496;DHT22;3789;47.064;15.482;2023-06-24T03:10:11;14.50;99.90
7496;DHT22;3789;47.064;15.482;2023-06-24T03:12:38;14.50;99.90
7496;DHT22;3789;47.064;15.482;2023-06-24T03:15:05;14.50;99.90
7496;DHT22;3789;47.064;15.482;2023-06-24T03:17:33;14.40;99.90
7496;DHT22;3789;47.064;15.482;2023-06-24T03:20:01;14.30;99.90
7496;DHT22;3789;47.064;15.482;2023-06-24T03:22:31;14.20;99.90
7496;DHT22;3789;47.064;15.482;2023-06-24T03:24:58;14.20;99.90
7496;DHT22;3789;47.064;15.482;2023-06-24T03:27:26;14.20;99.90
7496;DHT22;3789;47.064;15.482;2023-06-24T03:29:53;14.20;99.90
7496;DHT22;3789;47.064;15.482;2023-06-24T03:32:20;14.30;99.90
7496;DHT22;3789;47.064;15.482;2023-06-24T03:34:48;14.60;99.90
7496;DHT22;3789;47.064;15.482;2023-06-24T03:37:15;14.50;99.90
7496;DHT22;3789;47.064;15.482;2023-06-24T03:39:43;14.40;99.90
7496;DHT22;3789;47.064;15.482;2023-06-24T03:42:10;14.50;99.90
7496;DHT22;3789;47.064;15.482;2023-06-24T03:44:37;14.60;99.90
7496;DHT22;3789;47.064;15.482;2023-06-24T03:47:05;15.10;99.90
7496;DHT22;3789;47.064;15.482;2023-06-24T03:49:32;15.30;99.90
7496;DHT22;3789;47.064;15.482;2023-06-24T03:51:59;15.40;99.90
7496;DHT22;3789;47.064;15.482;2023-06-24T03:54:27;15.30;99.90
7496;DHT22;3789;47.064;15.482;2023-06-24T03:56:55;15.20;99.90
7496;DHT22;3789;47.064;15.482;2023-06-24T03:59:22;15.10;99.90
7496;DHT22;3789;47.064;15.482;2023-06-24T04:01:49;15.10;99.90
7496;DHT22;3789;47.064;15.482;2023-06-24T04:04:18;15.30;99.90
7496;DHT22;3789;47.064;15.482;2023-06-24T04:06:45;15.70;99.90
7496;DHT22;3789;47.064;15.482;2023-06-24T04:09:12;16.10;99.90
7496;DHT22;3789;47.064;15.482;2023-06-24T04:11:40;16.30;99.90
7496;DHT22;3789;47.064;15.482;2023-06-24T04:14:07;16.50;99.90
7496;DHT22;3789;47.064;15.482;2023-06-24T04:16:36;16.70;99.90
7496;DHT22;3789;47.064;15.482;2023-06-24T04:19:04;16.90;99.90
7496;DHT22;3789;47.064;15.482;2023-06-24T04:21:31;16.80;99.90
7496;DHT22;3789;47.064;15.482;2023-06-24T04:23:59;16.90;99.90
7496;DHT22;3789;47.064;15.482;2023-06-24T04:26:26;17.10;99.90
7496;DHT22;3789;47.064;15.482;2023-06-24T04:28:54;17.20;99.90
7496;DHT22;3789;47.064;15.482;2023-06-24T04:31:21;17.30;99.90
7496;DHT22;3789;47.064;15.482;2023-06-24T04:33:48;17.60;99.90
7496;DHT22;3789;47.064;15.482;2023-06-24T04:36:16;17.90;99.90
7496;DHT22;3789;47.064;15.482;2023-06-24T04:38:43;17.80;99.90
7496;DHT22;3789;47.064;15.482;2023-06-24T04:41:11;17.10;99.90
7496;DHT22;3789;47.064;15.482;2023-06-24T04:43:38;16.90;99.90
7496;DHT22;3789;47.064;15.482;2023-06-24T04:46:05;17.10;99.90
7496;DHT22;3789;47.064;15.482;2023-06-24T04:48:33;17.20;99.90
7496;DHT22;3789;47.064;15.482;2023-06-24T04:51:00;17.30;99.90
7496;DHT22;3789;47.064;15.482;2023-06-24T04:53:27;17.60;99.90
7496;DHT22;3789;47.064;15.482;2023-06-24T04:55:56;18.00;99.90
7496;DHT22;3789;47.064;15.482;2023-06-24T04:58:23;18.30;99.90
7496;DHT22;3789;47.064;15.482;2023-06-24T05:00:50;18.50;99.90
7496;DHT22;3789;47.064;15.482;2023-06-24T05:03:18;18.70;99.90
7496;DHT22;3789;47.064;15.482;2023-06-24T05:05:45;19.00;99.90
7496;DHT22;3789;47.064;15.482;2023-06-24T05:08:13;18.70;99.90
7496;DHT22;3789;47.064;15.482;2023-06-24T05:10:40;18.50;99.90
7496;DHT22;3789;47.064;15.482;2023-06-24T05:13:07;18.40;99.90
7496;DHT22;3789;47.064;15.482;2023-06-24T05:15:35;18.30;99.90
7496;DHT22;3789;47.064;15.482;2023-06-24T05:18:03;18.40;99.90
7496;DHT22;3789;47.064;15.482;2023-06-24T05:20:30;18.40;99.90
7496;DHT22;3789;47.064;15.482;2023-06-24T05:22:58;18.40;99.90
7496;DHT22;3789;47.064;15.482;2023-06-24T05:25:26;18.30;99.90
7496;DHT22;3789;47.064;15.482;2023-06-24T05:27:53;18.30;99.90
7496;DHT22;3789;47.064;15.482;2023-06-24T05:30:23;18.20;99.90
7496;DHT22;3789;47.064;15.482;2023-06-24T05:32:51;18.00;99.90
7496;DHT22;3789;47.064;15.482;2023-06-24T05:35:19;17.80;99.90
7496;DHT22;3789;47.064;15.482;2023-06-24T05:37:46;17.60;99.90
7496;DHT22;3789;47.064;15.482;2023-06-24T05:40:14;17.60;99.90
7496;DHT22;3789;47.064;15.482;2023-06-24T05:42:42;17.70;99.90
7496;DHT22;3789;47.064;15.482;2023-06-24T05:45:09;18.00;99.90
7496;DHT22;3789;47.064;15.482;2023-06-24T05:47:37;18.10;99.90
7496;DHT22;3789;47.064;15.482;2023-06-24T05:50:05;18.20;99.90
7496;DHT22;3789;47.064;15.482;2023-06-24T05:52:33;18.30;99.90
7496;DHT22;3789;47.064;15.482;2023-06-24T05:55:01;18.40;99.90
7496;DHT22;3789;47.064;15.482;2023-06-24T05:57:28;18.30;99.90
7496;DHT22;3789;47.064;15.482;2023-06-24T05:59:56;18.30;99.90
7496;DHT22;3789;47.064;15.482;2023-06-24T06:02:23;18.30;99.90
7496;DHT22;3789;47.064;15.482;2023-06-24T06:04:51;18.20;99.90
7496;DHT22;3789;47.064;15.482;2023-06-24T06:07:19;18.30;99.90
7496;DHT22;3789;47.064;15.482;2023-06-24T06:09:47;18.30;99.90
7496;DHT22;3789;47.064;15.482;2023-06-24T06:12:14;18.30;99.90
7496;DHT22;3789;47.064;15.482;2023-06-24T06:14:41;18.40;99.90
7496;DHT22;3789;47.064;15.482;2023-06-24T06:17:09;18.30;99.90
7496;DHT22;3789;47.064;15.482;2023-06-24T06:19:36;18.40;99.90
7496;DHT22;3789;47.064;15.482;2023-06-24T06:22:08;18.60;99.90
7496;DHT22;3789;47.064;15.482;2023-06-24T06:24:35;19.10;99.90
7496;DHT22;3789;47.064;15.482;2023-06-24T06:27:02;19.60;99.90
7496;DHT22;3789;47.064;15.482;2023-06-24T06:29:30;20.10;99.90
7496;DHT22;3789;47.064;15.482;2023-06-24T06:31:57;20.40;99.90
7496;DHT22;3789;47.064;15.482;2023-06-24T06:34:25;20.50;99.90
7496;DHT22;3789;47.064;15.482;2023-06-24T06:36:53;20.50;99.90
7496;DHT22;3789;47.064;15.482;2023-06-24T06:39:20;20.50;99.90
7496;DHT22;3789;47.064;15.482;2023-06-24T06:41:48;20.30;99.90
7496;DHT22;3789;47.064;15.482;2023-06-24T06:44:15;20.40;99.90
7496;DHT22;3789;47.064;15.482;2023-06-24T06:46:43;20.50;99.90
7496;DHT22;3789;47.064;15.482;2023-06-24T06:49:10;20.50;99.90
7496;DHT22;3789;47.064;15.482;2023-06-24T06:51:38;20.40;99.90
7496;DHT22;3789;47.064;15.482;2023-06-24T06:54:06;20.50;99.90
7496;DHT22;3789;47.064;15.482;2023-06-24T06:56:33;20.50;99.90
7496;DHT22;3789;47.064;15.482;2023-06-24T06:59:00;20.40;99.90
7496;DHT22;3789;47.064;15.482;2023-06-24T07:01:27;20.50;99.90
7496;DHT22;3789;47.064;15.482;2023-06-24T07:03:55;20.60;99.90
7496;DHT22;3789;47.064;15.482;2023-06-24T07:06:22;20.70;99.90
7496;DHT22;3789;47.064;15.482;2023-06-24T07:08:50;20.90;99.90
7496;DHT22;3789;47.064;15.482;2023-06-24T07:11:17;21.00;99.90
7496;DHT22;3789;47.064;15.482;2023-06-24T07:13:45;20.90;99.90
7496;DHT22;3789;47.064;15.482;2023-06-24T07:16:13;20.90;99.90
7496;DHT22;3789;47.064;15.482;2023-06-24T07:18:40;21.00;99.90
7496;DHT22;3789;47.064;15.482;2023-06-24T07:21:07;21.00;99.90
7496;DHT22;3789;47.064;15.482;2023-06-24T07:23:35;21.20;99.90
7496;DHT22;3789;47.064;15.482;2023-06-24T07:26:02;21.20;99.90
7496;DHT22;3789;47.064;15.482;2023-06-24T07:28:30;21.20;99.90
7496;DHT22;3789;47.064;15.482;2023-06-24T07:30:57;21.10;99.90
7496;DHT22;3789;47.064;15.482;2023-06-24T07:33:25;21.40;99.90
7496;DHT22;3789;47.064;15.482;2023-06-24T07:35:52;21.70;99.90
7496;DHT22;3789;47.064;15.482;2023-06-24T07:38:19;22.20;99.90
7496;DHT22;3789;47.064;15.482;2023-06-24T07:40:47;22.00;99.90
7496;DHT22;3789;47.064;15.482;2023-06-24T07:43:15;22.10;99.90
7496;DHT22;3789;47.064;15.482;2023-06-24T07:45:43;22.10;99.90
7496;DHT22;3789;47.064;15.482;2023-06-24T07:48:10;22.10;99.90
7496;DHT22;3789;47.064;15.482;2023-06-24T07:50:39;21.70;99.90
7496;DHT22;3789;47.064;15.482;2023-06-24T07:53:06;22.10;99.90
7496;DHT22;3789;47.064;15.482;2023-06-24T07:55:34;22.50;99.90
7496;DHT22;3789;47.064;15.482;2023-06-24T07:58:02;22.80;99.90
7496;DHT22;3789;47.064;15.482;2023-06-24T08:00:29;23.00;99.90
7496;DHT22;3789;47.064;15.482;2023-06-24T08:03:00;22.90;99.90
7496;DHT22;3789;47.064;15.482;2023-06-24T08:05:27;22.80;99.90
7496;DHT22;3789;47.064;15.482;2023-06-24T08:07:55;22.80;99.90
7496;DHT22;3789;47.064;15.482;2023-06-24T08:10:22;22.80;99.90
7496;DHT22;3789;47.064;15.482;2023-06-24T08:12:49;22.40;99.90
7496;DHT22;3789;47.064;15.482;2023-06-24T08:15:17;22.50;99.90
7496;DHT22;3789;47.064;15.482;2023-06-24T08:17:51;22.40;99.90
7496;DHT22;3789;47.064;15.482;2023-06-24T08:20:23;22.70;99.90
7496;DHT22;3789;47.064;15.482;2023-06-24T08:22:50;22.80;99.90
7496;DHT22;3789;47.064;15.482;2023-06-24T08:25:18;22.70;99.90
7496;DHT22;3789;47.064;15.482;2023-06-24T08:27:45;22.60;99.90
7496;DHT22;3789;47.064;15.482;2023-06-24T08:30:16;22.50;99.90
7496;DHT22;3789;47.064;15.482;2023-06-24T08:32:44;22.60;99.90
7496;DHT22;3789;47.064;15.482;2023-06-24T08:35:12;22.60;99.90
7496;DHT22;3789;47.064;15.482;2023-06-24T08:37:39;22.40;99.90
7496;DHT22;3789;47.064;15.482;2023-06-24T08:40:07;22.40;99.90
7496;DHT22;3789;47.064;15.482;2023-06-24T08:42:35;22.40;99.90
7496;DHT22;3789;47.064;15.482;2023-06-24T08:45:03;22.10;99.90
7496;DHT22;3789;47.064;15.482;2023-06-24T08:47:31;22.20;99.90
7496;DHT22;3789;47.064;15.482;2023-06-24T08:50:12;21.70;99.90
7496;DHT22;3789;47.064;15.482;2023-06-24T08:52:44;21.50;99.90
7496;DHT22;3789;47.064;15.482;2023-06-24T08:55:16;21.80;99.90
7496;DHT22;3789;47.064;15.482;2023-06-24T08:57:46;21.70;99.90
7496;DHT22;3789;47.064;15.482;2023-06-24T09:00:14;21.80;99.90
7496;DHT22;3789;47.064;15.482;2023-06-24T09:02:42;22.00;99.90
7496;DHT22;3789;47.064;15.482;2023-06-24T09:05:10;22.10;99.90
7496;DHT22;3789;47.064;15.482;2023-06-24T09:07:37;22.10;99.90
7496;DHT22;3789;47.064;15.482;2023-06-24T09:10:06;22.00;99.90
7496;DHT22;3789;47.064;15.482;2023-06-24T09:12:34;21.70;99.90
7496;DHT22;3789;47.064;15.482;2023-06-24T09:15:03;21.80;99.90
7496;DHT22;3789;47.064;15.482;2023-06-24T09:17:30;22.00;99.90
7496;DHT22;3789;47.064;15.482;2023-06-24T09:20:05;21.90;99.90
7496;DHT22;3789;47.064;15.482;2023-06-24T09:22:34;21.50;99.90
7496;DHT22;3789;47.064;15.482;2023-06-24T09:25:01;21.80;99.90
7496;DHT22;3789;47.064;15.482;2023-06-24T09:27:31;22.20;99.90
7496;DHT22;3789;47.064;15.482;2023-06-24T09:30:00;22.30;99.90
7496;DHT22;3789;47.064;15.482;2023-06-24T09:32:31;22.00;99.90
7496;DHT22;3789;47.064;15.482;2023-06-24T09:34:59;22.10;99.90
7496;DHT22;3789;47.064;15.482;2023-06-24T09:37:30;21.80;99.90
7496;DHT22;3789;47.064;15.482;2023-06-24T09:40:01;21.80;99.90
7496;DHT22;3789;47.064;15.482;2023-06-24T09:42:32;21.90;99.90
7496;DHT22;3789;47.064;15.482;2023-06-24T09:45:04;22.10;99.90
7496;DHT22;3789;47.064;15.482;2023-06-24T09:47:33;22.00;99.90
7496;DHT22;3789;47.064;15.482;2023-06-24T09:50:00;22.10;99.90
7496;DHT22;3789;47.064;15.482;2023-06-24T09:52:31;22.20;99.90
7496;DHT22;3789;47.064;15.482;2023-06-24T09:55:01;22.20;99.90
7496;DHT22;3789;47.064;15.482;2023-06-24T09:57:32;22.20;99.90
7496;DHT22;3789;47.064;15.482;2023-06-24T10:00:02;22.10;99.90
7496;DHT22;3789;47.064;15.482;2023-06-24T10:02:31;22.10;99.90
7496;DHT22;3789;47.064;15.482;2023-06-24T10:05:00;22.00;99.90
7496;DHT22;3789;47.064;15.482;2023-06-24T10:07:28;21.70;99.90
7496;DHT22;3789;47.064;15.482;2023-06-24T10:09:56;21.70;99.90
7496;DHT22;3789;47.064;15.482;2023-06-24T10:12:23;21.60;99.90
7496;DHT22;3789;47.064;15.482;2023-06-24T10:14:53;21.50;99.90
7496;DHT22;3789;47.064;15.482;2023-06-24T10:17:21;21.30;99.90
7496;DHT22;3789;47.064;15.482;2023-06-24T10:19:52;21.20;99.90
7496;DHT22;3789;47.064;15.482;2023-06-24T10:22:24;21.20;99.90
7496;DHT22;3789;47.064;15.482;2023-06-24T10:24:52;21.30;99.90
7496;DHT22;3789;47.064;15.482;2023-06-24T10:27:22;21.30;99.90
7496;DHT22;3789;47.064;15.482;2023-06-24T10:29:51;21.50;99.90
7496;DHT22;3789;47.064;15.482;2023-06-24T10:32:22;21.80;99.90
7496;DHT22;3789;47.064;15.482;2023-06-24T10:34:56;21.80;99.90
7496;DHT22;3789;47.064;15.482;2023-06-24T10:37:26;21.70;99.90
7496;DHT22;3789;47.064;15.482;2023-06-24T10:39:57;21.70;99.90
7496;DHT22;3789;47.064;15.482;2023-06-24T10:47:51;22.10;99.90
7496;DHT22;3789;47.064;15.482;2023-06-24T10:50:23;22.00;99.90
7496;DHT22;3789;47.064;15.482;2023-06-24T10:52:53;22.10;99.90
7496;DHT22;3789;47.064;15.482;2023-06-24T10:55:23;22.00;99.90
7496;DHT22;3789;47.064;15.482;2023-06-24T10:58:09;21.90;99.90
7496;DHT22;3789;47.064;15.482;2023-06-24T11:00:39;21.70;99.90
7496;DHT22;3789;47.064;15.482;2023-06-24T11:03:12;21.50;99.90
7496;DHT22;3789;47.064;15.482;2023-06-24T11:05:42;21.50;99.90
7496;DHT22;3789;47.064;15.482;2023-06-24T11:08:11;21.60;99.90
7496;DHT22;3789;47.064;15.482;2023-06-24T11:10:46;21.60;99.90
7496;DHT22;3789;47.064;15.482;2023-06-24T11:13:14;21.30;99.90
7496;DHT22;3789;47.064;15.482;2023-06-24T11:15:42;21.40;99.90
7496;DHT22;3789;47.064;15.482;2023-06-24T11:18:10;21.40;99.90
7496;DHT22;3789;47.064;15.482;2023-06-24T11:20:38;21.60;99.90
7496;DHT22;3789;47.064;15.482;2023-06-24T11:23:10;21.80;99.90
7496;DHT22;3789;47.064;15.482;2023-06-24T11:25:42;22.00;99.90
7496;DHT22;3789;47.064;15.482;2023-06-24T11:28:20;22.00;99.90
7496;DHT22;3789;47.064;15.482;2023-06-24T11:30:49;22.20;99.90
7496;DHT22;3789;47.064;15.482;2023-06-24T11:33:29;22.20;99.90
7496;DHT22;3789;47.064;15.482;2023-06-24T11:35:56;22.20;99.90
7496;DHT22;3789;47.064;15.482;2023-06-24T11:38:23;22.10;99.90
7496;DHT22;3789;47.064;15.482;2023-06-24T11:40:57;21.90;99.90
7496;DHT22;3789;47.064;15.482;2023-06-24T11:43:26;21.80;99.90
7496;DHT22;3789;47.064;15.482;2023-06-24T11:45:53;21.90;99.90
7496;DHT22;3789;47.064;15.482;2023-06-24T11:48:20;22.00;99.90
7496;DHT22;3789;47.064;15.482;2023-06-24T11:50:54;22.10;99.90
7496;DHT22;3789;47.064;15.482;2023-06-24T11:53:43;22.40;99.90
7496;DHT22;3789;47.064;15.482;2023-06-24T11:56:13;22.60;99.90
7496;DHT22;3789;47.064;15.482;2023-06-24T11:58:43;22.70;99.90
7496;DHT22;3789;47.064;15.482;2023-06-24T12:01:10;22.40;99.90
7496;DHT22;3789;47.064;15.482;2023-06-24T12:03:38;22.40;99.90
7496;DHT22;3789;47.064;15.482;2023-06-24T12:06:05;22.30;99.90
7496;DHT22;3789;47.064;15.482;2023-06-24T12:08:32;22.10;99.90
7496;DHT22;3789;47.064;15.482;2023-06-24T12:11:17;22.20;99.90
7496;DHT22;3789;47.064;15.482;2023-06-24T12:13:45;22.30;99.90
7496;DHT22;3789;47.064;15.482;2023-06-24T12:16:13;22.10;99.90
7496;DHT22;3789;47.064;15.482;2023-06-24T12:18:40;21.90;99.90
7496;DHT22;3789;47.064;15.482;2023-06-24T12:21:07;22.00;99.90
7496;DHT22;3789;47.064;15.482;2023-06-24T12:23:34;21.80;99.90
7496;DHT22;3789;47.064;15.482;2023-06-24T12:26:02;21.90;99.90
7496;DHT22;3789;47.064;15.482;2023-06-24T12:28:29;22.10;99.90
7496;DHT22;3789;47.064;15.482;2023-06-24T12:30:56;22.30;99.90
7496;DHT22;3789;47.064;15.482;2023-06-24T12:33:23;22.30;99.90
7496;DHT22;3789;47.064;15.482;2023-06-24T12:35:51;22.30;99.90
7496;DHT22;3789;47.064;15.482;2023-06-24T12:38:19;22.20;99.90
7496;DHT22;3789;47.064;15.482;2023-06-24T12:40:46;22.20;99.90
7496;DHT22;3789;47.064;15.482;2023-06-24T12:43:15;22.10;99.90
7496;DHT22;3789;47.064;15.482;2023-06-24T12:45:43;22.10;99.90
7496;DHT22;3789;47.064;15.482;2023-06-24T12:48:13;22.10;99.90
7496;DHT22;3789;47.064;15.482;2023-06-24T12:50:41;22.10;99.90
7496;DHT22;3789;47.064;15.482;2023-06-24T12:53:08;22.10;99.90
7496;DHT22;3789;47.064;15.482;2023-06-24T12:55:37;22.10;99.90
7496;DHT22;3789;47.064;15.482;2023-06-24T12:58:05;22.00;99.90
7496;DHT22;3789;47.064;15.482;2023-06-24T13:00:32;21.90;99.90
7496;DHT22;3789;47.064;15.482;2023-06-24T13:03:01;22.00;99.90
7496;DHT22;3789;47.064;15.482;2023-06-24T13:05:28;22.00;99.90
7496;DHT22;3789;47.064;15.482;2023-06-24T13:07:56;21.90;99.90
7496;DHT22;3789;47.064;15.482;2023-06-24T13:10:23;21.90;99.90
7496;DHT22;3789;47.064;15.482;2023-06-24T13:12:51;21.80;99.90
7496;DHT22;3789;47.064;15.482;2023-06-24T13:15:19;21.90;99.90
7496;DHT22;3789;47.064;15.482;2023-06-24T13:17:46;21.70;99.90
7496;DHT22;3789;47.064;15.482;2023-06-24T13:20:14;21.60;99.90
7496;DHT22;3789;47.064;15.482;2023-06-24T13:22:41;22.00;99.90
7496;DHT22;3789;47.064;15.482;2023-06-24T13:25:08;22.10;99.90
7496;DHT22;3789;47.064;15.482;2023-06-24T13:27:36;22.10;99.90
7496;DHT22;3789;47.064;15.482;2023-06-24T13:30:07;22.20;99.90
7496;DHT22;3789;47.064;15.482;2023-06-24T13:32:35;22.20;99.90
7496;DHT22;3789;47.064;15.482;2023-06-24T13:35:02;22.10;99.90
7496;DHT22;3789;47.064;15.482;2023-06-24T13:37:30;21.80;99.90
7496;DHT22;3789;47.064;15.482;2023-06-24T13:39:57;21.70;99.90
7496;DHT22;3789;47.064;15.482;2023-06-24T13:42:24;21.70;99.90
7496;DHT22;3789;47.064;15.482;2023-06-24T13:44:52;21.60;99.90
7496;DHT22;3789;47.064;15.482;2023-06-24T13:47:20;21.70;99.90
7496;DHT22;3789;47.064;15.482;2023-06-24T13:49:49;21.80;99.90
7496;DHT22;3789;47.064;15.482;2023-06-24T13:52:16;21.90;99.90
7496;DHT22;3789;47.064;15.482;2023-06-24T13:54:44;21.80;99.90
7496;DHT22;3789;47.064;15.482;2023-06-24T13:57:13;21.90;99.90
7496;DHT22;3789;47.064;15.482;2023-06-24T13:59:42;21.90;99.90
7496;DHT22;3789;47.064;15.482;2023-06-24T14:02:10;22.00;99.90
7496;DHT22;3789;47.064;15.482;2023-06-24T14:04:38;21.90;99.90
7496;DHT22;3789;47.064;15.482;2023-06-24T14:07:06;21.90;99.90
7496;DHT22;3789;47.064;15.482;2023-06-24T14:09:34;21.90;99.90
7496;DHT22;3789;47.064;15.482;2023-06-24T14:12:02;21.70;99.90
7496;DHT22;3789;47.064;15.482;2023-06-24T14:14:29;21.60;99.90
7496;DHT22;3789;47.064;15.482;2023-06-24T14:16:57;21.50;99.90
7496;DHT22;3789;47.064;15.482;2023-06-24T14:19:24;21.40;99.90
7496;DHT22;3789;47.064;15.482;2023-06-24T14:21:52;21.40;99.90
7496;DHT22;3789;47.064;15.482;2023-06-24T14:24:20;21.40;99.90
7496;DHT22;3789;47.064;15.482;2023-06-24T14:26:47;21.30;99.90
7496;DHT22;3789;47.064;15.482;2023-06-24T14:29:16;21.20;99.90
7496;DHT22;3789;47.064;15.482;2023-06-24T14:31:43;21.20;99.90
7496;DHT22;3789;47.064;15.482;2023-06-24T14:34:11;21.20;99.90
7496;DHT22;3789;47.064;15.482;2023-06-24T14:36:38;21.20;99.90
7496;DHT22;3789;47.064;15.482;2023-06-24T14:39:06;21.10;99.90
7496;DHT22;3789;47.064;15.482;2023-06-24T14:41:33;21.00;99.90
7496;DHT22;3789;47.064;15.482;2023-06-24T14:44:01;21.00;99.90
7496;DHT22;3789;47.064;15.482;2023-06-24T14:46:28;21.30;99.90
7496;DHT22;3789;47.064;15.482;2023-06-24T14:48:56;21.70;99.90
7496;DHT22;3789;47.064;15.482;2023-06-24T14:51:24;22.10;99.90
7496;DHT22;3789;47.064;15.482;2023-06-24T14:53:54;22.30;99.90
7496;DHT22;3789;47.064;15.482;2023-06-24T14:56:21;22.20;99.90
7496;DHT22;3789;47.064;15.482;2023-06-24T14:58:48;22.20;99.90
7496;DHT22;3789;47.064;15.482;2023-06-24T15:01:16;22.20;99.90
7496;DHT22;3789;47.064;15.482;2023-06-24T15:03:44;22.40;99.90
7496;DHT22;3789;47.064;15.482;2023-06-24T15:06:11;22.50;99.90
7496;DHT22;3789;47.064;15.482;2023-06-24T15:08:38;22.50;99.90
7496;DHT22;3789;47.064;15.482;2023-06-24T15:11:06;22.60;99.90
7496;DHT22;3789;47.064;15.482;2023-06-24T15:13:34;22.40;99.90
7496;DHT22;3789;47.064;15.482;2023-06-24T15:16:02;22.40;99.90
7496;DHT22;3789;47.064;15.482;2023-06-24T15:18:29;22.30;99.90
7496;DHT22;3789;47.064;15.482;2023-06-24T15:20:56;22.50;99.90
7496;DHT22;3789;47.064;15.482;2023-06-24T15:23:23;22.60;99.90
7496;DHT22;3789;47.064;15.482;2023-06-24T15:25:51;22.80;99.90
7496;DHT22;3789;47.064;15.482;2023-06-24T15:28:20;22.90;99.90
7496;DHT22;3789;47.064;15.482;2023-06-24T15:30:47;22.40;99.90
7496;DHT22;3789;47.064;15.482;2023-06-24T15:33:15;22.50;99.90
7496;DHT22;3789;47.064;15.482;2023-06-24T15:35:42;22.50;99.90
7496;DHT22;3789;47.064;15.482;2023-06-24T15:38:09;22.20;99.90
7496;DHT22;3789;47.064;15.482;2023-06-24T15:40:39;22.10;99.90
7496;DHT22;3789;47.064;15.482;2023-06-24T15:43:07;21.90;99.90
7496;DHT22;3789;47.064;15.482;2023-06-24T15:45:36;21.70;99.90
7496;DHT22;3789;47.064;15.482;2023-06-24T15:48:04;21.60;99.90
7496;DHT22;3789;47.064;15.482;2023-06-24T15:50:32;21.60;99.90
7496;DHT22;3789;47.064;15.482;2023-06-24T15:53:00;21.50;99.90
7496;DHT22;3789;47.064;15.482;2023-06-24T15:55:28;21.40;99.90
7496;DHT22;3789;47.064;15.482;2023-06-24T15:57:55;21.20;99.90
7496;DHT22;3789;47.064;15.482;2023-06-24T16:00:22;21.10;99.90
7496;DHT22;3789;47.064;15.482;2023-06-24T16:02:49;21.30;99.90
7496;DHT22;3789;47.064;15.482;2023-06-24T16:05:17;21.30;99.90
7496;DHT22;3789;47.064;15.482;2023-06-24T16:07:45;21.50;99.90
7496;DHT22;3789;47.064;15.482;2023-06-24T16:10:12;21.40;99.90
7496;DHT22;3789;47.064;15.482;2023-06-24T16:12:40;21.30;99.90
7496;DHT22;3789;47.064;15.482;2023-06-24T16:15:08;21.60;99.90
7496;DHT22;3789;47.064;15.482;2023-06-24T16:17:36;21.60;99.90